Time;durP1;ratioP1;P1;durP2;ratioP2;P2;SDS_P1;SDS_P2;PMS_P1;PMS_P2;Temp;Humidity;BMP_temperature;BMP_pressure;BME280_temperature;BME280_humidity;BME280_pressure;Samples;Min_cycle;Max_cycle;Signal;HPM_P1;HPM_P2
2023/02/15 00:01:33;;;;;;;127.47;15.43;;;2.60;89.10;;;;;;5018066;28;20033;-60
2023/02/15 00:03:59;;;;;;;118.95;15.25;;;2.60;89.50;;;;;;5015476;28;20049;-60
2023/02/15 00:06:25;;;;;;;201.45;17.08;;;2.60;89.80;;;;;;5015823;28;20037;-59
2023/02/15 00:08:50;;;;;;;54.88;14.63;;;2.60;90.00;;;;;;5018002;28;20037;-60
2023/02/15 00:11:39;;;;;;;101.15;15.77;;;2.60;89.80;;;;;;5022777;28;20030;-60
2023/02/15 00:14:10;;;;;;;212.00;17.45;;;2.60;90.00;;;;;;5018475;28;20418;-60
2023/02/15 00:16:37;;;;;;;204.32;16.17;;;2.60;90.00;;;;;;5014129;28;20476;-59
2023/02/15 00:19:04;;;;;;;84.60;13.00;;;2.60;90.00;;;;;;5018626;28;20044;-59
2023/02/15 00:21:32;;;;;;;79.80;13.88;;;2.60;89.90;;;;;;5014916;28;20776;-59
2023/02/15 00:23:59;;;;;;;108.60;14.05;;;2.60;90.00;;;;;;5014821;28;20103;-59
2023/02/15 00:26:25;;;;;;;192.68;16.00;;;2.60;90.00;;;;;;5016200;28;20114;-59
2023/02/15 00:28:51;;;;;;;48.15;12.57;;;2.60;90.00;;;;;;5015801;28;20037;-61
2023/02/15 00:31:17;;;;;;;56.58;12.57;;;2.70;90.00;;;;;;5018335;28;20091;-60
2023/02/15 00:33:43;;;;;;;138.10;15.50;;;2.70;89.90;;;;;;5015175;28;20117;-60
2023/02/15 00:36:09;;;;;;;96.78;14.48;;;2.70;89.80;;;;;;5014918;28;20033;-57
2023/02/15 00:38:35;;;;;;;128.27;13.20;;;2.70;89.60;;;;;;5015982;28;20525;-60
2023/02/15 00:41:04;;;;;;;235.52;16.05;;;2.70;89.70;;;;;;5014589;28;20065;-58
2023/02/15 00:43:32;;;;;;;148.55;14.60;;;2.70;89.60;;;;;;5013913;28;20539;-61
2023/02/15 00:45:58;;;;;;;89.47;12.90;;;2.70;89.40;;;;;;5017521;28;20116;-61
2023/02/15 00:48:24;;;;;;;37.78;11.85;;;2.70;89.40;;;;;;5015670;28;20116;-59
2023/02/15 00:50:52;;;;;;;125.45;14.02;;;2.70;89.40;;;;;;5015473;28;20050;-56
2023/02/15 00:53:17;;;;;;;134.02;12.93;;;2.70;89.40;;;;;;5015910;28;20036;-61
2023/02/15 00:55:43;;;;;;;82.65;11.68;;;2.70;89.30;;;;;;5016674;28;20310;-60
2023/02/15 00:58:10;;;;;;;67.43;12.23;;;2.70;89.30;;;;;;5014946;28;20033;-58
2023/02/15 01:00:36;;;;;;;66.57;11.82;;;2.70;89.40;;;;;;5013484;28;20045;-58
2023/02/15 01:03:02;;;;;;;49.22;11.60;;;2.70;89.40;;;;;;5012803;28;20036;-59
2023/02/15 01:05:29;;;;;;;34.00;10.18;;;2.70;89.60;;;;;;5013397;28;20042;-59
2023/02/15 01:07:55;;;;;;;131.93;13.98;;;2.70;89.60;;;;;;5017270;28;20038;-61
2023/02/15 01:10:21;;;;;;;95.20;12.82;;;2.70;89.60;;;;;;5019329;28;20127;-60
2023/02/15 01:12:46;;;;;;;193.77;14.80;;;2.70;89.60;;;;;;5012562;28;20512;-60
2023/02/15 01:15:12;;;;;;;183.18;18.35;;;2.70;89.20;;;;;;5013340;28;20040;-60
2023/02/15 01:17:37;;;;;;;108.05;12.02;;;2.70;88.90;;;;;;5014725;28;20033;-61
2023/02/15 01:20:04;;;;;;;274.73;17.98;;;2.70;88.70;;;;;;5017979;28;20516;-60
2023/02/15 01:22:29;;;;;;;236.63;17.98;;;2.60;88.70;;;;;;5016153;28;20046;-61
2023/02/15 01:24:55;;;;;;;172.80;14.40;;;2.60;88.60;;;;;;5014355;28;20393;-61
2023/02/15 01:27:20;;;;;;;179.38;13.98;;;2.50;88.60;;;;;;5015054;28;20142;-60
2023/02/15 01:29:47;;;;;;;124.47;13.30;;;2.50;88.80;;;;;;5016548;28;20044;-62
2023/02/15 01:32:13;;;;;;;147.57;13.38;;;2.40;89.10;;;;;;5015789;28;20475;-61
2023/02/15 01:34:38;;;;;;;106.97;12.23;;;2.30;89.20;;;;;;5017056;28;20029;-61
2023/02/15 01:37:04;;;;;;;149.90;12.90;;;2.30;89.40;;;;;;5014311;28;20033;-60
2023/02/15 01:39:29;;;;;;;30.60;10.30;;;2.30;89.40;;;;;;5011667;28;20091;-58
2023/02/15 01:41:55;;;;;;;81.28;11.65;;;2.30;89.40;;;;;;5011528;28;20132;-59
2023/02/15 01:44:49;;;;;;;62.88;12.98;;;2.30;89.60;;;;;;5017260;28;20033;-61
2023/02/15 01:47:22;;;;;;;50.67;11.30;;;2.40;90.00;;;;;;5010738;28;20520;-60
2023/02/15 01:49:52;;;;;;;45.08;11.88;;;2.40;90.00;;;;;;5013579;28;20036;-61
2023/02/15 01:52:18;;;;;;;112.63;12.95;;;2.40;90.40;;;;;;5014100;28;20581;-61
2023/02/15 01:54:46;;;;;;;64.97;11.68;;;2.40;90.00;;;;;;5013196;28;20192;-61
2023/02/15 01:57:16;;;;;;;52.90;11.20;;;2.50;90.00;;;;;;5014635;28;20103;-59
2023/02/15 01:59:45;;;;;;;230.40;15.80;;;2.50;89.80;;;;;;5015967;28;20206;-60
2023/02/15 02:02:14;;;;;;;152.00;14.38;;;2.50;89.60;;;;;;5017372;28;20075;-60
2023/02/15 02:04:45;;;;;;;175.88;14.20;;;2.40;89.40;;;;;;5012009;28;20323;-62
2023/02/15 02:07:13;;;;;;;194.48;14.45;;;2.40;89.30;;;;;;5014848;28;20041;-60
2023/02/15 02:09:39;;;;;;;140.57;12.77;;;2.40;89.40;;;;;;5015725;28;20922;-57
2023/02/15 02:12:05;;;;;;;40.97;10.75;;;2.40;89.30;;;;;;5014477;28;20029;-58
2023/02/15 02:14:31;;;;;;;126.32;13.15;;;2.40;89.40;;;;;;5013072;28;20057;-60
2023/02/15 02:17:00;;;;;;;71.25;11.18;;;2.30;89.60;;;;;;5010684;28;20506;-57
2023/02/15 02:19:31;;;;;;;44.85;11.00;;;2.30;89.60;;;;;;5015027;28;20026;-60
2023/02/15 02:22:18;;;;;;;65.10;11.70;;;2.40;89.80;;;;;;5011836;28;20029;-60
2023/02/15 02:24:53;;;;;;;41.28;9.40;;;2.40;90.00;;;;;;5014428;28;20030;-59
2023/02/15 02:27:34;;;;;;;61.20;11.82;;;2.40;90.30;;;;;;5011480;28;20033;-61
2023/02/15 02:30:14;;;;;;;120.82;14.02;;;2.50;89.90;;;;;;5013656;28;20094;-61
2023/02/15 02:33:01;;;;;;;46.25;11.32;;;2.50;89.80;;;;;;5015902;28;20052;-61
2023/02/15 02:35:38;;;;;;;73.00;11.30;;;2.50;89.60;;;;;;5010888;28;20029;-61
2023/02/15 02:38:13;;;;;;;208.02;14.07;;;2.50;89.50;;;;;;5012954;28;20508;-61
2023/02/15 02:41:07;;;;;;;134.75;12.27;;;2.50;90.10;;;;;;5013443;28;20042;-62
2023/02/15 02:43:54;;;;;;;60.22;10.57;;;2.50;89.20;;;;;;5013079;28;20785;-60
2023/02/15 02:46:45;;;;;;;100.32;12.85;;;2.50;89.10;;;;;;5014163;28;20418;-59
2023/02/15 02:49:11;;;;;;;87.75;12.40;;;2.50;88.40;;;;;;5010758;28;20083;-61
2023/02/15 02:51:37;;;;;;;146.80;13.13;;;2.40;89.10;;;;;;5014687;28;20087;-61
2023/02/15 02:54:06;;;;;;;56.88;11.75;;;2.40;89.10;;;;;;5010571;28;20029;-62
2023/02/15 02:56:48;;;;;;;95.75;12.15;;;2.40;88.90;;;;;;5014665;28;20034;-59
2023/02/15 02:59:20;;;;;;;50.65;11.45;;;2.40;89.10;;;;;;5011679;28;20113;-61
2023/02/15 03:01:57;;;;;;;53.25;11.05;;;2.40;89.10;;;;;;5011984;28;20091;-59
2023/02/15 03:04:34;;;;;;;82.35;11.88;;;2.40;89.30;;;;;;5011717;28;22906;-60
2023/02/15 03:07:14;;;;;;;40.60;10.15;;;2.40;89.40;;;;;;5011893;28;20034;-61
2023/02/15 03:09:45;;;;;;;17.35;10.13;;;2.40;89.60;;;;;;5015948;28;20591;-61
2023/02/15 03:12:13;;;;;;;99.50;12.70;;;2.40;89.50;;;;;;5014160;28;20236;-59
2023/02/15 03:14:41;;;;;;;32.45;9.80;;;2.50;89.60;;;;;;5012165;28;20084;-61
2023/02/15 03:17:07;;;;;;;66.10;12.15;;;2.40;89.60;;;;;;5012812;28;20037;-60
2023/02/15 03:19:36;;;;;;;78.18;11.57;;;2.40;89.60;;;;;;5012726;28;20122;-61
2023/02/15 03:22:13;;;;;;;90.85;11.38;;;2.50;89.40;;;;;;5013127;28;20030;-60
2023/02/15 03:24:49;;;;;;;53.65;10.07;;;2.50;89.30;;;;;;5012980;28;20038;-60
2023/02/15 03:27:19;;;;;;;126.93;15.32;;;2.40;89.10;;;;;;5017911;28;20084;-61
2023/02/15 03:29:48;;;;;;;123.47;12.88;;;2.40;88.90;;;;;;5019213;28;20094;-61
2023/02/15 03:32:15;;;;;;;89.28;10.98;;;2.40;88.60;;;;;;5018804;28;20096;-58
2023/02/15 03:34:41;;;;;;;54.72;12.10;;;2.40;88.50;;;;;;5013915;28;20532;-56
2023/02/15 03:37:31;;;;;;;74.88;11.38;;;2.30;88.70;;;;;;5019063;28;20099;-60
2023/02/15 03:43:37;;;;;;;87.80;10.60;;;2.20;88.90;;;;;;5026574;28;20056;-59
2023/02/15 03:46:30;;;;;;;35.83;9.43;;;2.30;89.00;;;;;;5015819;28;20041;-59
2023/02/15 03:49:07;;;;;;;100.75;10.82;;;2.20;89.10;;;;;;5015610;28;20394;-60
2023/02/15 03:51:37;;;;;;;68.55;11.60;;;2.20;89.10;;;;;;5017124;28;20556;-59
2023/02/15 04:03:11;;;;;;;52.05;9.85;;;2.20;89.30;;;;;;5015454;28;20076;-59
2023/02/15 04:05:37;;;;;;;40.45;10.30;;;2.20;89.40;;;;;;5018314;28;20444;-61
2023/02/15 04:08:03;;;;;;;46.63;11.02;;;2.20;89.40;;;;;;5017940;28;20061;-60
2023/02/15 04:13:13;;;;;;;58.60;10.75;;;2.20;89.60;;;;;;5018409;28;20037;-61
2023/02/15 04:26:36;;;;;;;81.05;11.48;;;2.30;89.10;;;;;;5013435;28;20578;-58
2023/02/15 04:29:02;;;;;;;100.53;11.13;;;2.30;89.00;;;;;;5019127;28;20113;-59
2023/02/15 04:31:27;;;;;;;51.90;10.82;;;2.20;88.80;;;;;;5016960;28;20181;-59
2023/02/15 04:33:53;;;;;;;43.42;10.27;;;2.20;88.80;;;;;;5021386;28;20041;-59
2023/02/15 04:36:18;;;;;;;65.60;10.60;;;2.20;88.90;;;;;;5019927;28;20616;-62
2023/02/15 04:38:44;;;;;;;55.88;10.15;;;2.20;88.90;;;;;;5018305;28;20501;-57
2023/02/15 04:41:11;;;;;;;50.58;9.52;;;2.20;89.00;;;;;;5019686;28;20053;-61
2023/02/15 04:43:36;;;;;;;64.70;10.15;;;2.10;88.90;;;;;;5019452;28;20119;-58
2023/02/15 04:46:02;;;;;;;50.42;10.05;;;2.10;88.90;;;;;;5017790;28;20054;-57
2023/02/15 04:48:27;;;;;;;44.28;10.15;;;2.10;88.90;;;;;;5017224;28;20116;-61
2023/02/15 04:50:53;;;;;;;82.10;10.55;;;2.10;88.70;;;;;;5012617;28;20034;-61
2023/02/15 04:53:19;;;;;;;117.55;12.38;;;2.10;88.70;;;;;;5018083;28;20496;-58
2023/02/15 04:55:44;;;;;;;27.40;10.20;;;2.10;88.70;;;;;;5017257;28;20099;-59
2023/02/15 04:58:10;;;;;;;61.40;10.88;;;2.10;88.60;;;;;;5011883;28;20183;-60
2023/02/15 05:00:36;;;;;;;62.20;11.40;;;2.00;88.40;;;;;;5014564;28;20034;-58
2023/02/15 05:03:01;;;;;;;26.67;9.77;;;2.00;88.50;;;;;;5014787;28;20034;-59
2023/02/15 05:05:27;;;;;;;69.50;11.65;;;2.00;88.70;;;;;;5016560;28;20045;-61
2023/02/15 05:07:53;;;;;;;32.40;10.43;;;2.00;88.90;;;;;;5013067;28;20573;-61
2023/02/15 05:10:18;;;;;;;91.40;11.65;;;2.00;89.00;;;;;;5018149;28;20055;-59
2023/02/15 05:12:44;;;;;;;29.23;11.18;;;2.00;89.10;;;;;;5014280;28;20034;-61
2023/02/15 05:15:10;;;;;;;68.50;11.57;;;2.00;89.10;;;;;;5017246;28;20095;-58
2023/02/15 05:17:35;;;;;;;46.97;10.48;;;2.00;89.30;;;;;;5018770;28;20098;-61
2023/02/15 05:20:01;;;;;;;56.97;11.73;;;2.00;89.10;;;;;;5014986;28;20044;-59
2023/02/15 05:22:26;;;;;;;52.63;11.75;;;2.00;88.90;;;;;;5016996;28;20081;-61
2023/02/15 05:30:21;;;;;;;24.92;13.32;;;1.90;88.60;;;;;;5013338;28;20044;-60
2023/02/15 05:32:46;;;;;;;55.33;11.43;;;1.90;88.60;;;;;;5018236;28;23669;-60
2023/02/15 05:35:14;;;;;;;44.70;11.13;;;1.90;88.70;;;;;;5017445;28;20030;-60
2023/02/15 05:37:40;;;;;;;47.47;11.20;;;1.80;88.70;;;;;;5016803;28;20556;-60
2023/02/15 05:40:06;;;;;;;50.13;14.52;;;1.80;88.60;;;;;;5017734;28;20171;-59
2023/02/15 05:42:32;;;;;;;43.45;13.65;;;1.80;88.70;;;;;;5017136;28;20590;-59
2023/02/15 05:44:57;;;;;;;24.92;11.57;;;1.70;88.70;;;;;;5018916;28;20064;-60
2023/02/15 05:47:23;;;;;;;90.50;12.73;;;1.70;88.80;;;;;;5017418;28;20389;-59
2023/02/15 05:49:49;;;;;;;82.43;12.43;;;1.70;88.80;;;;;;5016649;28;20030;-59
2023/02/15 05:52:14;;;;;;;64.63;13.77;;;1.70;88.80;;;;;;5017981;28;20086;-58
2023/02/15 05:54:40;;;;;;;44.28;16.42;;;1.60;88.70;;;;;;5016923;28;20326;-60
2023/02/15 05:57:05;;;;;;;69.22;22.48;;;1.60;88.80;;;;;;5017336;28;20639;-60
2023/02/15 05:59:31;;;;;;;55.45;19.42;;;1.60;88.90;;;;;;5017392;28;20080;-60
2023/02/15 06:01:56;;;;;;;47.65;18.23;;;1.60;88.90;;;;;;5018468;28;20033;-59
2023/02/15 06:04:22;;;;;;;66.88;13.00;;;1.60;89.10;;;;;;5018100;28;20064;-57
2023/02/15 06:06:48;;;;;;;36.95;11.45;;;1.60;89.00;;;;;;5018477;28;20038;-59
2023/02/15 06:09:14;;;;;;;24.35;10.65;;;1.60;88.90;;;;;;5017783;28;20347;-61
2023/02/15 06:11:39;;;;;;;29.27;11.10;;;1.50;88.80;;;;;;5020377;28;20053;-60
2023/02/15 06:14:05;;;;;;;20.40;10.38;;;1.60;88.90;;;;;;5016549;28;20037;-59
2023/02/15 06:16:31;;;;;;;18.85;11.30;;;1.50;88.90;;;;;;5017198;28;20546;-59
2023/02/15 06:18:58;;;;;;;23.30;11.35;;;1.60;89.00;;;;;;5018339;28;20034;-61
2023/02/15 06:21:24;;;;;;;28.50;10.90;;;1.60;89.10;;;;;;5017022;28;20485;-61
2023/02/15 06:23:49;;;;;;;33.60;12.10;;;1.60;89.10;;;;;;5017910;28;20095;-61
2023/02/15 06:26:15;;;;;;;37.08;11.90;;;1.60;89.20;;;;;;5017313;28;20456;-60
2023/02/15 06:28:41;;;;;;;33.17;11.20;;;1.60;89.10;;;;;;5016263;28;20034;-60
2023/02/15 06:31:06;;;;;;;17.42;11.50;;;1.60;88.90;;;;;;5016281;28;20042;-60
2023/02/15 06:33:33;;;;;;;16.95;10.93;;;1.60;88.90;;;;;;5017244;28;20417;-59
2023/02/15 06:35:59;;;;;;;23.80;10.35;;;1.60;88.90;;;;;;5016428;28;20041;-60
2023/02/15 06:38:25;;;;;;;23.05;10.82;;;1.60;88.90;;;;;;5016852;28;20381;-59
2023/02/15 06:40:50;;;;;;;17.15;9.85;;;1.60;88.90;;;;;;5015936;28;20509;-60
2023/02/15 06:43:16;;;;;;;17.73;10.95;;;1.60;88.70;;;;;;5016739;28;20334;-60
2023/02/15 06:45:42;;;;;;;14.02;9.63;;;1.60;88.60;;;;;;5017500;28;20087;-59
2023/02/15 06:48:07;;;;;;;19.35;12.50;;;1.60;88.70;;;;;;5017151;28;20026;-57
2023/02/15 06:50:34;;;;;;;17.08;10.95;;;1.50;88.70;;;;;;5017038;28;20041;-60
2023/02/15 06:53:00;;;;;;;16.85;10.35;;;1.50;88.80;;;;;;5016696;28;20324;-59
2023/02/15 06:55:25;;;;;;;17.83;10.50;;;1.50;88.70;;;;;;5017409;28;20096;-60
2023/02/15 06:57:51;;;;;;;19.77;10.93;;;1.50;88.70;;;;;;5016831;28;20033;-61
2023/02/15 07:00:18;;;;;;;22.10;11.60;;;1.50;88.60;;;;;;5016652;28;20037;-59
2023/02/15 07:02:44;;;;;;;21.45;13.15;;;1.50;88.70;;;;;;5015067;28;20087;-61
2023/02/15 07:05:09;;;;;;;16.42;11.05;;;1.40;88.80;;;;;;5017835;28;20467;-61
2023/02/15 07:07:35;;;;;;;16.30;10.90;;;1.40;88.90;;;;;;5017095;28;20033;-61
2023/02/15 07:10:02;;;;;;;30.15;10.82;;;1.40;88.90;;;;;;5017946;28;20041;-60
2023/02/15 07:12:44;;;;;;;18.50;11.15;;;1.40;88.90;;;;;;5020751;28;20099;-60
2023/02/15 07:15:12;;;;;;;17.05;11.43;;;1.30;88.90;;;;;;5016741;28;20125;-62
2023/02/15 07:17:38;;;;;;;16.88;11.18;;;1.40;89.00;;;;;;5017008;28;20100;-59
2023/02/15 07:20:08;;;;;;;17.17;10.52;;;1.30;89.00;;;;;;5016361;28;20037;-61
2023/02/15 07:22:36;;;;;;;17.17;11.27;;;1.30;89.10;;;;;;5015211;28;20042;-60
2023/02/15 07:25:03;;;;;;;19.50;12.00;;;1.40;89.30;;;;;;5017230;28;20053;-60
2023/02/15 07:27:30;;;;;;;16.30;10.73;;;1.40;89.30;;;;;;5017469;28;20049;-61
2023/02/15 07:29:55;;;;;;;16.88;12.63;;;1.40;89.20;;;;;;5017264;28;20033;-61
2023/02/15 07:32:21;;;;;;;16.88;10.93;;;1.40;89.10;;;;;;5016104;28;20038;-62
2023/02/15 07:34:47;;;;;;;17.98;11.60;;;1.40;88.90;;;;;;5016912;28;20524;-60
2023/02/15 07:37:12;;;;;;;17.55;10.73;;;1.50;88.80;;;;;;5015403;28;20260;-60
2023/02/15 07:39:38;;;;;;;38.83;12.88;;;1.50;88.80;;;;;;5016977;28;20133;-58
2023/02/15 07:42:03;;;;;;;21.25;12.57;;;1.50;89.50;;;;;;5015976;28;20033;-61
2023/02/15 07:44:29;;;;;;;29.10;12.48;;;1.40;88.50;;;;;;5016156;28;20022;-61
2023/02/15 07:46:54;;;;;;;23.65;12.55;;;1.40;88.40;;;;;;5016594;28;20066;-60
2023/02/15 07:49:20;;;;;;;19.17;11.27;;;1.50;88.40;;;;;;5014868;28;20037;-60
2023/02/15 07:51:46;;;;;;;19.88;12.13;;;1.40;88.40;;;;;;5015789;28;20393;-60
2023/02/15 07:54:11;;;;;;;50.17;12.48;;;1.40;88.40;;;;;;5015915;28;20230;-61
2023/02/15 07:56:37;;;;;;;23.05;11.48;;;1.40;88.40;;;;;;5014648;28;20116;-59
2023/02/15 07:59:04;;;;;;;37.28;12.98;;;1.40;88.40;;;;;;5021944;28;20041;-60
2023/02/15 08:01:33;;;;;;;19.88;12.73;;;1.30;88.50;;;;;;5016656;28;20049;-58
2023/02/15 08:03:59;;;;;;;22.08;12.73;;;1.30;88.60;;;;;;5015627;28;20049;-61
2023/02/15 08:06:28;;;;;;;20.55;12.55;;;1.30;88.60;;;;;;5017357;28;20026;-61
2023/02/15 08:08:53;;;;;;;22.88;12.95;;;1.30;88.70;;;;;;5015938;28;20034;-60
2023/02/15 08:11:28;;;;;;;24.63;14.80;;;1.30;88.80;;;;;;5020592;28;20044;-60
2023/02/15 08:14:02;;;;;;;24.40;13.60;;;1.30;89.10;;;;;;5020025;28;20500;-56
2023/02/15 08:16:37;;;;;;;22.83;14.05;;;1.30;89.30;;;;;;5019895;28;20416;-59
2023/02/15 08:19:08;;;;;;;26.60;14.10;;;1.30;89.30;;;;;;5019544;28;20234;-56
2023/02/15 08:21:36;;;;;;;21.40;13.38;;;1.30;89.30;;;;;;5020546;28;20076;-56
2023/02/15 08:24:03;;;;;;;21.30;12.50;;;1.40;89.30;;;;;;5018594;28;20193;-58
2023/02/15 08:26:30;;;;;;;75.10;29.20;;;1.40;89.30;;;;;;5018130;28;20113;-58
2023/02/15 08:28:56;;;;;;;58.67;24.38;;;1.40;89.30;;;;;;5019473;28;20041;-61
2023/02/15 08:31:23;;;;;;;51.42;23.17;;;1.40;89.40;;;;;;5018516;28;20435;-60
2023/02/15 08:33:50;;;;;;;77.20;30.15;;;1.50;89.60;;;;;;5020352;28;20116;-61
2023/02/15 08:36:19;;;;;;;30.58;15.98;;;1.50;89.60;;;;;;5018527;28;20135;-60
2023/02/15 08:38:45;;;;;;;37.13;18.23;;;1.60;89.50;;;;;;5019731;28;20127;-59
2023/02/15 08:41:12;;;;;;;92.57;32.58;;;1.60;89.30;;;;;;5017303;28;20037;-58
2023/02/15 08:43:38;;;;;;;26.70;15.32;;;1.60;89.30;;;;;;5018751;28;20041;-61
2023/02/15 08:46:06;;;;;;;24.73;14.23;;;1.70;89.30;;;;;;5019804;28;20030;-58
2023/02/15 08:48:31;;;;;;;31.33;16.17;;;1.70;89.10;;;;;;5018594;28;20026;-59
2023/02/15 08:50:57;;;;;;;22.40;13.15;;;1.70;89.10;;;;;;5019536;28;20036;-58
2023/02/15 08:53:22;;;;;;;26.13;15.48;;;1.70;89.10;;;;;;5019191;28;20026;-58
2023/02/15 08:55:58;;;;;;;21.63;13.07;;;1.70;89.10;;;;;;5018953;28;20048;-59
2023/02/15 08:58:25;;;;;;;22.67;14.02;;;1.80;89.10;;;;;;5019316;28;20129;-60
2023/02/15 09:00:51;;;;;;;48.00;21.00;;;1.80;89.10;;;;;;5018286;28;20396;-61
2023/02/15 09:03:17;;;;;;;48.55;20.85;;;1.80;89.10;;;;;;5016191;28;20037;-60
2023/02/15 09:05:43;;;;;;;23.92;14.55;;;1.80;89.20;;;;;;5020697;28;20029;-62
2023/02/15 09:08:08;;;;;;;26.63;16.08;;;1.80;89.30;;;;;;5020878;28;20022;-61
2023/02/15 09:10:34;;;;;;;24.05;14.32;;;1.80;89.30;;;;;;5022943;28;20123;-62
2023/02/15 09:12:59;;;;;;;21.33;13.60;;;1.90;89.50;;;;;;5021302;28;20409;-62
2023/02/15 09:15:25;;;;;;;24.65;14.85;;;1.90;89.50;;;;;;5020632;28;20045;-62
2023/02/15 09:17:50;;;;;;;23.95;14.45;;;1.90;89.60;;;;;;5021048;28;20405;-61
2023/02/15 09:20:16;;;;;;;21.77;13.25;;;2.00;89.60;;;;;;5021109;28;20024;-61
2023/02/15 09:22:42;;;;;;;21.90;13.30;;;2.00;89.60;;;;;;5020842;28;20038;-60
2023/02/15 09:25:07;;;;;;;22.55;13.70;;;2.10;89.60;;;;;;5020807;28;20036;-62
2023/02/15 09:27:33;;;;;;;24.30;14.38;;;2.10;89.60;;;;;;5020391;28;20041;-61
2023/02/15 09:29:59;;;;;;;24.17;14.57;;;2.20;89.70;;;;;;5020920;28;20433;-62
2023/02/15 09:32:24;;;;;;;21.45;13.23;;;2.20;90.20;;;;;;5019419;28;20095;-62
2023/02/15 09:34:50;;;;;;;23.23;14.63;;;2.20;89.80;;;;;;5020630;28;20041;-61
2023/02/15 09:37:15;;;;;;;25.10;14.80;;;2.30;89.90;;;;;;5020534;28;20172;-60
2023/02/15 09:39:43;;;;;;;22.00;13.73;;;2.30;89.90;;;;;;5021077;28;20094;-61
2023/02/15 09:42:27;;;;;;;22.17;13.70;;;2.40;90.00;;;;;;5020189;28;20057;-61
2023/02/15 09:45:13;;;;;;;21.98;13.80;;;2.40;90.10;;;;;;5019875;28;20045;-62
2023/02/15 09:47:39;;;;;;;21.13;13.45;;;2.50;90.10;;;;;;5019513;28;20038;-61
2023/02/15 09:50:13;;;;;;;20.23;13.80;;;2.50;90.00;;;;;;5019229;28;20525;-59
2023/02/15 09:52:48;;;;;;;;;;;2.60;90.00;;;;;;5020251;28;20033;-62
2023/02/15 09:55:36;;;;;;;22.73;13.50;;;2.70;90.10;;;;;;5020383;28;20363;-60
2023/02/15 09:58:13;;;;;;;20.80;13.63;;;2.70;90.00;;;;;;5019984;28;20583;-62
2023/02/15 10:01:11;;;;;;;23.92;13.68;;;2.80;90.00;;;;;;5019781;28;20238;-61
2023/02/15 10:04:12;;;;;;;22.38;14.52;;;2.80;90.60;;;;;;5019881;28;20068;-62
2023/02/15 10:06:46;;;;;;;21.35;13.68;;;2.90;90.30;;;;;;5019664;28;20037;-61
2023/02/15 10:09:22;;;;;;;25.42;15.05;;;3.00;90.20;;;;;;5019125;28;20585;-62
2023/02/15 10:12:13;;;;;;;24.35;15.10;;;3.10;90.20;;;;;;5021363;28;20467;-62
2023/02/15 10:15:08;;;;;;;23.17;14.95;;;3.20;90.30;;;;;;5018500;28;20424;-62
2023/02/15 10:17:53;;;;;;;24.35;15.18;;;3.20;90.30;;;;;;5018699;28;20034;-62
2023/02/15 10:20:34;;;;;;;24.25;15.68;;;3.30;90.50;;;;;;5019124;28;20034;-62
2023/02/15 10:23:26;;;;;;;26.63;16.48;;;3.40;90.50;;;;;;5017567;28;20342;-62
2023/02/15 10:26:24;;;;;;;22.45;15.30;;;3.50;90.60;;;;;;5018985;28;20038;-62
2023/02/15 10:29:03;;;;;;;26.17;17.85;;;3.70;90.50;;;;;;5010485;28;20041;-61
2023/02/15 10:31:31;;;;;;;23.30;16.25;;;3.70;90.30;;;;;;5018770;28;20084;-62
2023/02/15 10:34:16;;;;;;;28.63;18.27;;;3.80;90.30;;;;;;5019065;28;20028;-61
2023/02/15 10:36:42;;;;;;;;;;;3.90;90.30;;;;;;5018575;28;20124;-61
2023/02/15 10:39:18;;;;;;;23.85;15.68;;;4.00;90.40;;;;;;5018156;28;20351;-58
2023/02/15 10:41:44;;;;;;;26.92;17.17;;;4.00;90.10;;;;;;5017685;28;20048;-62
2023/02/15 10:44:15;;;;;;;29.23;18.50;;;4.10;90.20;;;;;;5017780;28;20065;-60
2023/02/15 10:46:47;;;;;;;30.08;19.17;;;4.20;90.30;;;;;;5016926;28;20044;-61
2023/02/15 10:49:49;;;;;;;29.65;19.38;;;4.30;90.40;;;;;;5017198;28;20026;-62
2023/02/15 10:52:55;;;;;;;32.15;19.92;;;4.40;90.50;;;;;;5018090;28;20099;-60
2023/02/15 10:55:54;;;;;;;28.98;18.95;;;4.50;90.40;;;;;;5007982;28;20069;-59
2023/02/15 10:58:38;;;;;;;27.65;17.90;;;4.60;90.40;;;;;;4995918;28;20038;-60
2023/02/15 11:01:05;;;;;;;26.42;17.70;;;4.80;90.50;;;;;;5018503;28;20136;-61
2023/02/15 11:03:42;;;;;;;28.35;18.33;;;4.80;90.40;;;;;;5019006;28;20034;-61
2023/02/15 11:06:19;;;;;;;27.63;17.80;;;4.90;90.40;;;;;;5019433;28;20040;-61
2023/02/15 11:08:48;;;;;;;28.20;17.42;;;5.00;90.40;;;;;;5018760;28;20108;-62
2023/02/15 11:11:40;;;;;;;29.40;19.33;;;5.10;90.30;;;;;;5023641;28;20539;-62
2023/02/15 11:14:20;;;;;;;28.90;20.35;;;5.30;90.40;;;;;;5018429;28;20514;-62
2023/02/15 11:16:51;;;;;;;28.90;19.50;;;5.30;90.40;;;;;;5018954;28;20057;-62
2023/02/15 11:19:26;;;;;;;31.90;20.77;;;5.40;90.60;;;;;;5018242;28;20121;-61
2023/02/15 11:21:57;;;;;;;;;;;5.50;90.30;;;;;;5019726;28;20048;-62
2023/02/15 11:24:27;;;;;;;31.40;19.38;;;5.60;91.00;;;;;;5019138;28;19940;-60
2023/02/15 11:26:59;;;;;;;31.45;19.67;;;5.60;90.30;;;;;;5017897;28;20065;-61
2023/02/15 11:29:45;;;;;;;28.77;18.80;;;5.60;90.40;;;;;;5017779;28;20092;-61
2023/02/15 11:32:32;;;;;;;28.92;19.33;;;5.70;90.40;;;;;;5018340;28;20042;-61
2023/02/15 11:35:26;;;;;;;31.15;19.65;;;5.80;90.40;;;;;;5018358;28;20029;-60
2023/02/15 11:38:05;;;;;;;29.75;19.02;;;5.90;90.50;;;;;;5017248;28;20038;-61
2023/02/15 11:40:41;;;;;;;29.80;19.83;;;6.00;90.50;;;;;;5018654;28;20501;-62
2023/02/15 11:43:15;;;;;;;30.42;20.73;;;6.10;90.60;;;;;;5018060;28;20041;-61
2023/02/15 11:45:42;;;;;;;29.95;20.50;;;6.20;90.60;;;;;;5018845;28;20040;-60
2023/02/15 11:48:13;;;;;;;29.83;20.27;;;6.30;90.60;;;;;;5018945;28;20033;-62
2023/02/15 11:50:39;;;;;;;30.73;20.50;;;6.30;90.50;;;;;;5022394;28;20038;-60
2023/02/15 11:53:29;;;;;;;32.75;21.25;;;6.50;90.50;;;;;;5022467;28;20046;-62
2023/02/15 11:55:55;;;;;;;33.85;21.35;;;6.50;90.40;;;;;;5022383;28;20094;-60
2023/02/15 11:58:28;;;;;;;32.30;21.25;;;6.70;90.30;;;;;;5022513;28;20030;-61
2023/02/15 12:01:00;;;;;;;31.70;21.80;;;6.70;90.30;;;;;;5022194;28;20033;-59
2023/02/15 12:03:44;;;;;;;31.25;21.10;;;6.80;90.20;;;;;;5020307;28;20050;-59
2023/02/15 12:06:35;;;;;;;29.40;20.83;;;6.90;90.30;;;;;;5021475;28;20134;-59
2023/02/15 12:09:19;;;;;;;30.52;21.42;;;7.00;90.30;;;;;;5021278;28;20146;-60
2023/02/15 12:11:44;;;;;;;27.15;19.63;;;7.10;90.30;;;;;;5027328;28;20037;-60
2023/02/15 12:14:15;;;;;;;27.48;19.23;;;7.20;90.20;;;;;;5036500;28;20091;-61
2023/02/15 12:16:50;;;;;;;27.80;19.80;;;7.20;90.10;;;;;;5020813;28;20132;-61
2023/02/15 12:19:24;;;;;;;30.42;21.25;;;7.30;90.00;;;;;;5021522;28;20057;-61
2023/02/15 12:21:53;;;;;;;30.05;20.17;;;7.50;90.00;;;;;;5019901;28;20133;-61
2023/02/15 12:24:23;;;;;;;29.95;20.85;;;7.50;89.90;;;;;;5019421;28;20528;-59
2023/02/15 12:27:03;;;;;;;29.98;19.80;;;7.60;89.80;;;;;;5020271;28;20037;-61
2023/02/15 12:29:45;;;;;;;28.65;19.45;;;7.70;89.50;;;;;;5021710;28;20108;-60
2023/02/15 12:32:29;;;;;;;26.15;18.48;;;7.80;89.20;;;;;;5019336;28;20380;-61
2023/02/15 12:35:27;;;;;;;28.13;19.17;;;7.90;89.10;;;;;;5020698;28;20037;-60
2023/02/15 12:38:03;;;;;;;28.88;19.17;;;8.00;89.00;;;;;;5019959;28;20044;-60
2023/02/15 12:40:31;;;;;;;30.50;19.10;;;8.00;89.10;;;;;;5020908;28;20055;-59
2023/02/15 12:42:57;;;;;;;27.75;20.05;;;8.10;89.10;;;;;;5019552;28;20042;-60
2023/02/15 12:45:29;;;;;;;32.35;19.63;;;8.20;89.10;;;;;;5020949;28;20689;-60
2023/02/15 12:48:17;;;;;;;28.45;19.42;;;8.30;88.70;;;;;;5018537;28;20141;-61
2023/02/15 12:50:51;;;;;;;26.60;17.80;;;8.40;88.30;;;;;;5020604;28;20092;-59
2023/02/15 12:53:19;;;;;;;27.52;16.25;;;8.40;88.40;;;;;;5017096;28;20086;-61
2023/02/15 12:55:59;;;;;;;26.77;16.75;;;8.50;87.90;;;;;;5020750;28;21836;-61
2023/02/15 12:58:27;;;;;;;25.38;16.38;;;8.60;87.00;;;;;;5021895;28;20114;-60
2023/02/15 13:01:15;;;;;;;25.95;15.82;;;8.70;87.30;;;;;;5019891;28;20042;-61
2023/02/15 13:04:04;;;;;;;21.98;15.60;;;8.80;86.20;;;;;;5020515;28;20409;-61
2023/02/15 13:06:36;;;;;;;23.98;15.50;;;8.90;85.80;;;;;;5021147;28;20571;-61
2023/02/15 13:09:17;;;;;;;24.50;16.67;;;9.00;86.30;;;;;;5021086;28;20425;-60
2023/02/15 13:11:44;;;;;;;22.52;15.43;;;9.10;85.30;;;;;;5023383;28;20038;-61
2023/02/15 13:14:32;;;;;;;24.95;17.17;;;9.20;85.80;;;;;;5019428;28;20463;-60
2023/02/15 13:17:02;;;;;;;22.77;15.52;;;9.20;84.50;;;;;;5019637;28;20113;-59
2023/02/15 13:19:39;;;;;;;21.80;15.85;;;9.30;85.20;;;;;;5020191;28;20034;-61
2023/02/15 13:22:33;;;;;;;21.80;16.02;;;9.40;84.60;;;;;;5019073;28;20038;-60
2023/02/15 13:25:04;;;;;;;23.10;15.52;;;9.50;84.10;;;;;;5018458;28;20030;-61
2023/02/15 13:27:41;;;;;;;23.40;16.05;;;9.60;84.80;;;;;;5019086;28;20121;-62